createdAt,value
2018-12-16T00:10:58.157Z,3.08
2018-12-16T00:21:58.402Z,3.08
2018-12-16T00:32:58.744Z,3.07
2018-12-16T00:44:00.092Z,3.07
2018-12-16T00:55:04.031Z,3.07
2018-12-16T01:06:04.262Z,3.06
2018-12-16T01:17:08.821Z,3.06
2018-12-16T01:28:12.373Z,3.05
2018-12-16T01:39:16.661Z,3.05
2018-12-16T01:50:21.631Z,3.05
2018-12-16T02:01:22.496Z,3.04
2018-12-16T02:12:27.038Z,3.04
2018-12-16T02:23:28.519Z,3.04
2018-12-16T02:34:29.325Z,3.04
2018-12-16T02:45:33.102Z,3.03
2018-12-16T02:56:35.992Z,3.03
2018-12-16T03:07:40.767Z,3.03
2018-12-16T03:18:41.695Z,3.02
2018-12-16T03:29:43.640Z,3.02
2018-12-16T03:40:48.631Z,3.02
2018-12-16T03:51:53.430Z,3.02
2018-12-16T04:02:54.317Z,3.01
2018-12-16T04:13:59.004Z,3.01
2018-12-16T04:25:00.095Z,3.00
2018-12-16T04:36:03.104Z,3.00
2018-12-16T04:47:01.538Z,3.00
2018-12-16T04:58:05.843Z,2.99
2018-12-16T05:09:08.000Z,2.99
2018-12-16T05:20:15.558Z,2.91
2018-12-16T05:31:13.841Z,2.98
2018-12-16T05:42:13.209Z,2.98
2018-12-16T05:53:13.752Z,2.98
2018-12-16T06:04:13.207Z,2.98
2018-12-16T06:15:17.722Z,2.97
2018-12-16T06:26:18.870Z,2.97
2018-12-16T06:37:21.431Z,2.97
2018-12-16T06:48:22.682Z,2.97
2018-12-16T06:59:21.890Z,2.98
2018-12-16T07:10:20.873Z,2.98
2018-12-16T07:21:23.047Z,2.99
2018-12-16T07:32:23.503Z,3.01
2018-12-16T07:43:25.369Z,3.03
2018-12-16T07:54:23.421Z,3.05
2018-12-16T08:05:21.018Z,3.05
2018-12-16T08:16:20.042Z,3.05
2018-12-16T08:27:15.728Z,3.07
2018-12-16T08:38:14.875Z,3.09
2018-12-16T08:49:14.915Z,3.10
2018-12-16T09:00:16.791Z,3.14
2018-12-16T09:11:19.771Z,3.13
2018-12-16T09:22:20.600Z,3.16
2018-12-16T09:33:24.476Z,3.18
2018-12-16T09:44:28.135Z,3.18
2018-12-16T09:55:29.374Z,3.19
2018-12-16T10:06:33.304Z,3.20
2018-12-16T10:17:37.313Z,3.20
2018-12-16T10:28:39.460Z,3.21
2018-12-16T10:39:39.271Z,3.23
2018-12-16T10:50:41.990Z,3.33
2018-12-16T11:01:43.798Z,3.41
2018-12-16T11:12:42.126Z,3.33
2018-12-16T11:23:42.573Z,3.34
2018-12-16T11:34:44.247Z,3.33
2018-12-16T11:45:42.170Z,3.38
2018-12-16T11:56:44.306Z,3.39
2018-12-16T12:07:45.605Z,3.39
2018-12-16T12:18:46.129Z,3.34
2018-12-16T12:29:43.459Z,3.33
2018-12-16T12:40:46.128Z,3.37
2018-12-16T12:51:45.440Z,3.35
2018-12-16T13:02:46.773Z,3.34
2018-12-16T13:13:49.857Z,3.34
2018-12-16T13:24:47.834Z,3.37
2018-12-16T13:35:49.914Z,3.37
2018-12-16T13:46:52.855Z,3.36
2018-12-16T13:57:52.481Z,3.37
2018-12-16T14:08:49.954Z,3.34
2018-12-16T14:19:54.075Z,3.33
2018-12-16T14:30:56.028Z,3.32
2018-12-16T14:41:56.246Z,3.30
2018-12-16T14:52:57.382Z,3.29
2018-12-16T15:03:57.509Z,3.29
2018-12-16T15:15:00.237Z,3.28
2018-12-16T15:26:03.636Z,3.27
2018-12-16T15:37:05.287Z,3.26
2018-12-16T15:48:09.419Z,3.26
2018-12-16T15:59:07.270Z,3.25
2018-12-16T16:10:09.950Z,3.25
2018-12-16T16:21:08.682Z,3.24
2018-12-16T16:32:10.535Z,3.23
2018-12-16T16:43:07.448Z,3.23
2018-12-16T16:54:16.459Z,3.18
2018-12-16T17:05:04.548Z,3.21
2018-12-16T17:16:03.478Z,3.21
2018-12-16T17:27:10.238Z,3.15
2018-12-16T17:38:06.552Z,3.19
2018-12-16T17:49:05.477Z,3.19
2018-12-16T18:00:00.484Z,3.19
2018-12-16T18:11:02.051Z,3.18
2018-12-16T18:21:58.870Z,3.18
2018-12-16T18:32:56.475Z,3.17
2018-12-16T18:43:53.928Z,3.17
2018-12-16T18:54:53.319Z,3.17
2018-12-16T19:05:57.983Z,3.16
2018-12-16T19:17:00.653Z,3.15
2018-12-16T19:28:02.137Z,3.15
2018-12-16T19:39:04.703Z,3.15
2018-12-16T19:50:03.545Z,3.15
2018-12-16T20:01:01.875Z,3.15
2018-12-16T20:11:57.239Z,3.14
2018-12-16T20:22:57.775Z,3.14
2018-12-16T20:33:58.061Z,3.14
2018-12-16T20:44:58.092Z,3.13
2018-12-16T20:56:01.233Z,3.13
2018-12-16T21:06:58.506Z,3.13
2018-12-16T21:17:56.194Z,3.12
2018-12-16T21:28:51.898Z,3.11
2018-12-16T21:39:51.829Z,3.11
2018-12-16T21:50:47.426Z,3.11
2018-12-16T22:01:46.672Z,3.11
2018-12-16T22:12:41.910Z,3.10
2018-12-16T22:23:40.312Z,3.10
2018-12-16T22:34:37.847Z,3.10
2018-12-16T22:45:35.834Z,3.09
2018-12-16T22:56:39.799Z,3.09
2018-12-16T23:07:39.948Z,3.09
2018-12-16T23:18:40.512Z,3.08
2018-12-16T23:29:44.915Z,3.08
2018-12-16T23:40:46.774Z,3.07
2018-12-16T23:51:51.313Z,3.07
